Flight Track Log - Related Links

Times and Time Zones

All times are in EDT time to prevent confusion due to time zone crossing. See the AWE1600 flight status page for this flight to view local times or setup timezone preferences in your user account.

Time Position Orientation Groundspeed Altitude Reporting Facility
EDT Latitude Longitude Course Direction KTS MPH feet Rate Location/Type
Mon 09:27:18 AM 39.8758 -75.2194 270° West 144 166 900  Level FAA TRACON SMA TRACON (SMA)
Mon 09:27:39 AM 39.8814 -75.2028 67° East 143 165 1,700 1,650 Climbing FAA TRACON SMA TRACON (SMA)
Mon 09:27:58 AM 39.8881 -75.1833 66° East 178 205 2,000 1,200 Climbing FAA TRACON SMA TRACON (SMA)
Mon 09:28:19 AM 39.8969 -75.1572 66° East 212 244 2,500 1,650 Climbing FAA TRACON SMA TRACON (SMA)
Mon 09:28:38 AM 39.9119 -75.1403 41° Northeast 250 288 3,100 1,950 Climbing FAA TRACON SMA TRACON (SMA)
Mon 09:28:59 AM 39.9311 -75.1381 North 233 268 3,800 1,950 Climbing FAA TRACON SMA TRACON (SMA)
Mon 09:29:18 AM 39.9569 -75.1478 344° North 259 298 4,400 1,650 Climbing FAA TRACON SMA TRACON (SMA)
Mon 09:29:39 AM 39.9656 -75.1719 295° West 242 278 4,900 2,049 Climbing FAA TRACON SMA TRACON (SMA)
Mon 09:29:59 AM 39.9631 -75.1975 263° West 239 275 5,800 2,769 Climbing FAA TRACON SMA TRACON (SMA)
Mon 09:30:00 AM 39.9086 -75.7152 258° West  Level FlightAware Approximate
Mon 09:30:18 AM 39.9600 -75.2314 263° West 250 288 6,700  Level FAA TRACON SMA TRACON (SMA)
Mon 09:30:41 AM 39.9581 -75.2592 265° West 254 292 7,500 2,591 Climbing FAA TRACON SMA TRACON (SMA)
Mon 09:31:00 AM 39.9000 -75.8388 270° West  Level FlightAware Approximate
Mon 09:31:02 AM 39.9544 -75.2956 263° West 259 298 8,600  Level FAA TRACON SMA TRACON (SMA)
Mon 09:31:19 AM 39.9508 -75.3250 261° West 271 312 9,400 2,108 Climbing FAA TRACON SMA TRACON (SMA)
Mon 09:31:39 AM 39.9481 -75.3556 263° West 280 322 9,900 900 Climbing FAA TRACON SMA TRACON (SMA)
Mon 09:31:59 AM 39.9444 -75.3950 263° West 301 346 10,000 146 Climbing FAA TRACON SMA TRACON (SMA)
Mon 09:32:00 AM 39.9000 -75.9637 270° West  Level FlightAware Approximate
Mon 09:32:20 AM 39.9406 -75.4317 262° West 329 379 10,000  Level FAA TRACON SMA TRACON (SMA)
Mon 09:32:40 AM 39.9369 -75.4714 263° West 329 379 10,000  Level FAA TRACON SMA TRACON (SMA)
Mon 09:33:00 AM 39.9331 -75.5131 263° West 329 379 10,000  Level FAA TRACON SMA TRACON (SMA)
Mon 09:33:20 AM 39.9292 -75.5494 262° West 329 379 10,000 450 Level FAA TRACON SMA TRACON (SMA)
Mon 09:33:40 AM 39.9253 -75.5894 263° West 330 380 10,300 1,350 Climbing FAA TRACON SMA TRACON (SMA)
Mon 09:34:00 AM 39.9214 -75.6325 263° West 336 387 10,900 1,950 Climbing FAA TRACON SMA TRACON (SMA)
Mon 09:34:20 AM 39.9181 -75.6708 264° West 353 406 11,600 2,550 Climbing FAA TRACON SMA TRACON (SMA)
Mon 09:34:40 AM 39.9164 -75.7208 268° West 365 420 12,600 2,700 Climbing FAA TRACON SMA TRACON (SMA)
Mon 09:35:00 AM 39.9158 -75.7628 269° West 362 417 13,400 2,250 Climbing FAA TRACON SMA TRACON (SMA)
Mon 09:35:20 AM 39.9147 -75.8039 268° West 367 422 14,100 2,100 Climbing FAA TRACON SMA TRACON (SMA)
Mon 09:35:40 AM 39.9142 -75.8456 269° West 371 427 14,800 2,550 Climbing FAA TRACON SMA TRACON (SMA)
Mon 09:36:00 AM 39.9131 -75.8958 268° West 377 434 15,800 2,700 Climbing FAA TRACON SMA TRACON (SMA)
Mon 09:36:20 AM 39.9119 -75.9411 268° West 380 437 16,600 2,250 Climbing FAA TRACON SMA TRACON (SMA)
Mon 09:36:40 AM 39.9114 -75.9833 269° West 381 438 17,300 1,800 Climbing FAA TRACON SMA TRACON (SMA)
Mon 09:37:00 AM 39.9100 -76.0372 268° West 383 441 17,800 1,200 Climbing FAA TRACON SMA TRACON (SMA)
Mon 09:37:20 AM 39.9100 -76.0575 270° West 384 442 18,100 1,832 Climbing FAA TRACON SMA TRACON (SMA)
Mon 09:39:47 AM 39.9194 -76.4281 272° West 411 473 22,900 1,971 Climbing New York Center
Mon 09:40:47 AM 39.9250 -76.5719 273° West 411 473 24,900 1,587 Climbing New York Center
Mon 09:41:48 AM 39.9283 -76.7131 272° West 403 464 26,100 1,190 Climbing New York Center
Mon 09:42:48 AM 39.9581 -76.8644 284° West 410 472 27,300 1,513 Climbing New York Center
Mon 09:43:47 AM 39.9861 -77.0106 284° West 415 478 29,100 1,350 Climbing New York Center
Mon 09:44:48 AM 40.0117 -77.1567 283° West 415 478 30,000 446 Climbing New York Center
Mon 09:45:48 AM 40.0389 -77.3028 284° West 421 484 30,000  Level New York Center
Mon 09:46:46 AM 40.0639 -77.4517 282° West 421 484 30,000  Level New York Center
Mon 09:48:38 AM 40.1192 -77.7378 284° West 404 465 30,000  Level Cleveland Center
Mon 09:49:38 AM 40.1394 -77.8861 280° West 410 472 30,000  Level Cleveland Center
Mon 09:50:38 AM 40.1364 -78.0194 268° West 410 472 30,000  Level Cleveland Center
Mon 09:51:38 AM 40.1375 -78.1689 271° West 410 472 30,000  Level Cleveland Center
Mon 09:52:38 AM 40.1383 -78.3156 270° West 410 472 30,000  Level Cleveland Center
Mon 09:53:38 AM 40.1392 -78.4619 270° West 410 472 30,000  Level Cleveland Center
Mon 09:54:38 AM 40.1417 -78.6086 271° West 405 466 30,000  Level Cleveland Center
Mon 09:55:38 AM 40.1400 -78.7581 269° West 405 466 30,000 50 Level Cleveland Center
Mon 09:56:38 AM 40.1425 -78.9047 271° West 405 466 30,100  Climbing Cleveland Center
Mon 09:57:38 AM 40.1422 -79.0514 270° West 405 466 30,000 -50 Descending Cleveland Center
Mon 09:58:38 AM 40.1525 -79.1950 275° West 405 466 30,000  Level Cleveland Center
Mon 09:59:38 AM 40.1856 -79.3494 286° West 405 466 30,000  Level Cleveland Center
Mon 10:00:38 AM 40.2161 -79.4875 286° West 405 466 30,000  Level Cleveland Center
Mon 10:01:38 AM 40.2444 -79.6283 285° West 400 460 30,000  Level Cleveland Center
Mon 10:02:38 AM 40.2728 -79.7667 285° West 400 460 30,000 -350 Level Cleveland Center
Mon 10:03:38 AM 40.3028 -79.9081 286° West 400 460 29,300 -800 Descending Cleveland Center
Mon 10:04:38 AM 40.3264 -80.0383 283° West 395 455 28,400 -650 Descending Cleveland Center
Mon 10:05:38 AM 40.3833 -80.1633 301° West 395 455 28,000 -200 Descending Cleveland Center
Mon 10:06:38 AM 40.4461 -80.2883 303° West 402 463 28,000  Level Cleveland Center
Mon 10:07:38 AM 40.5089 -80.4056 305° West 402 463 28,000  Level Cleveland Center
Mon 10:08:38 AM 40.5694 -80.5283 303° West 407 468 28,000  Level Cleveland Center
Mon 10:09:38 AM 40.6361 -80.6706 302° West 412 474 28,000  Level Cleveland Center
Mon 10:10:38 AM 40.6925 -80.7775 305° West 407 468 28,000  Level Cleveland Center
Mon 10:11:38 AM 40.7547 -80.9039 303° West 407 468 28,000  Level Cleveland Center
Mon 10:12:38 AM 40.8167 -81.0303 303° West 407 468 28,000 -200 Level Cleveland Center
Mon 10:13:38 AM 40.8744 -81.1569 301° West 407 468 27,600 -700 Descending Cleveland Center
Mon 10:14:38 AM 40.9342 -81.2811 303° West 407 468 26,600 -1,000 Descending Cleveland Center
Mon 10:15:38 AM 40.9939 -81.4056 302° West 407 468 25,600 -1,000 Descending Cleveland Center
Mon 10:16:38 AM 41.0514 -81.5247 303° West 400 460 24,600 -793 Descending Cleveland Center
Mon 10:17:39 AM 41.1108 -81.6497 302° West 389 448 24,000 -300 Descending Cleveland Center
Mon 10:18:38 AM 41.1681 -81.7525 307° West 384 442 24,000  Level Cleveland Center
Mon 10:19:38 AM 41.2231 -81.8722 301° West 384 442 24,000  Level Cleveland Center
Mon 10:20:38 AM 41.2781 -81.9894 302° West 384 442 24,000 -400 Level Cleveland Center
Mon 10:21:38 AM 41.3367 -82.1233 300° West 379 436 23,200 -1,300 Descending Cleveland Center
Mon 10:22:38 AM 41.3897 -82.2189 307° West 379 436 21,400 -1,900 Descending Cleveland Center
Mon 10:23:38 AM 41.4528 -82.3231 309° West 368 423 19,400 -2,040 Descending Cleveland Center
Mon 10:24:18 AM 41.4975 -82.3989 308° West 359 413 18,000 -1,800 Descending Cleveland Center
Mon 10:24:38 AM 41.5136 -82.4244 310° West 356 410 17,600 -1,574 Descending Cleveland Center
Mon 10:25:19 AM 41.5603 -82.5008 309° West 351 404 16,400 -1,600 Descending Cleveland Center
Mon 10:25:38 AM 41.5744 -82.5261 307° West 347 399 16,000 -1,967 Descending Cleveland Center
Mon 10:26:20 AM 41.6192 -82.6025 308° West 351 404 14,400 -2,100 Descending Cleveland Center
Mon 10:26:38 AM 41.6331 -82.6278 306° West 347 399 13,900 -1,869 Descending Cleveland Center
Mon 10:27:21 AM 41.6878 -82.7158 310° West 358 412 12,500 -1,700 Descending Cleveland Center
Mon 10:27:38 AM 41.7000 -82.7411 303° West 347 399 12,200 -358 Descending Cleveland Center
Mon 10:28:28 AM 41.7528 -82.8153 314° West 332 382 12,100 -57 Descending Cleveland Center
Mon 10:29:23 AM 41.8158 -82.8900 319° Northwest 316 364 12,100 -169 Level Cleveland Center
Mon 10:29:39 AM 41.8300 -82.9072 318° Northwest 321 369 11,900  Descending Cleveland Center
Mon 10:30:24 AM 41.8808 -82.9706 317° Northwest 320 368 12,100 107 Climbing Cleveland Center
Mon 10:31:31 AM 41.9581 -83.0628 318° Northwest 321 369 12,100  Level Cleveland Center
Mon 10:32:32 AM 42.0233 -83.1381 319° Northwest 319 367 12,100 -103 Level Cleveland Center
Mon 10:33:27 AM 42.0761 -83.2017 318° Northwest 274 315 11,900 -550 Descending Cleveland Center
Mon 10:34:21 AM 42.1314 -83.2431 331° Northwest 265 305 11,100 -973 Descending FAA TRACON SMA TRACON (SMA)
Mon 10:34:41 AM 42.1556 -83.2519 345° North 266 306 10,700 -1,500 Descending FAA TRACON SMA TRACON (SMA)
Mon 10:35:01 AM 42.1800 -83.2436 14° North 268 308 10,100 -1,500 Descending FAA TRACON SMA TRACON (SMA)
Mon 10:35:21 AM 42.2000 -83.2278 30° Northeast 264 304 9,700 -1,200 Descending FAA TRACON SMA TRACON (SMA)
Mon 10:35:41 AM 42.2236 -83.2100 29° Northeast 270 311 9,300 -1,200 Descending FAA TRACON SMA TRACON (SMA)
Mon 10:36:01 AM 42.2456 -83.1950 27° Northeast 270 311 8,900 -1,231 Descending FAA TRACON SMA TRACON (SMA)
Mon 10:36:20 AM 42.2658 -83.1811 27° Northeast 269 310 8,500 -1,385 Descending FAA TRACON SMA TRACON (SMA)
Mon 10:36:40 AM 42.2914 -83.1633 27° Northeast 270 311 8,000 -1,350 Descending FAA TRACON SMA TRACON (SMA)
Mon 10:37:00 AM 42.3106 -83.1467 33° Northeast 264 304 7,600 -1,200 Descending FAA TRACON SMA TRACON (SMA)
Mon 10:37:20 AM 42.3297 -83.1297 33° Northeast 265 305 7,200 -1,350 Descending FAA TRACON SMA TRACON (SMA)
Mon 10:37:40 AM 42.3533 -83.1100 32° Northeast 265 305 6,700 -1,050 Descending FAA TRACON SMA TRACON (SMA)
Mon 10:38:00 AM 42.3758 -83.1097 North 267 307 6,500 -750 Descending FAA TRACON SMA TRACON (SMA)
Mon 10:38:20 AM 42.3956 -83.1292 324° Northwest 223 257 6,200 -750 Descending FAA TRACON SMA TRACON (SMA)
Mon 10:38:40 AM 42.4047 -83.1489 302° West 212 244 6,000 -750 Descending FAA TRACON SMA TRACON (SMA)
Mon 10:39:00 AM 42.4086 -83.1728 282° West 172 198 5,700 -900 Descending FAA TRACON SMA TRACON (SMA)
Mon 10:39:20 AM 42.4042 -83.1892 250° West 161 185 5,400 -1,350 Descending FAA TRACON SMA TRACON (SMA)
Mon 10:39:40 AM 42.3942 -83.2036 227° Southwest 141 162 4,800 -1,610 Descending FAA TRACON SMA TRACON (SMA)
Mon 10:40:01 AM 42.3814 -83.2139 211° Southwest 147 169 4,300 -1,050 Descending FAA TRACON SMA TRACON (SMA)
Mon 10:40:20 AM 42.3714 -83.2219 211° Southwest 146 168 4,100 -615 Descending FAA TRACON SMA TRACON (SMA)
Mon 10:40:40 AM 42.3592 -83.2311 209° Southwest 143 165 3,900 -750 Descending FAA TRACON SMA TRACON (SMA)
Mon 10:41:00 AM 42.3472 -83.2400 209° Southwest 141 162 3,600 -900 Descending FAA TRACON SMA TRACON (SMA)

Login

Don't have an account? Register now (free) for customized features, flight alerts, and more!